Terminal Aerodrome Forecast
Issued by NWS

Home | Current Version | Previous Version | Text Only | Print | Product List | Glossary On
Versions: 1 2 3 4 5 6 7 8 9 10 11 12
698
FTUS42 KGSP 232118 AAA
TAFGMU
TAF AMD
KGMU 232118Z 2321/2418 04014G21KT 6SM SHRA BR OVC008
      TEMPO 2323/2402 3SM +SHRA BR OVC004
     FM240200 03013KT 2SM -SHRA BR OVC008
     FM240500 04013KT 4SM -SHRA BR OVC003 PROB30 2412/2416 2SM SHRA
      BR OVC003=

USA.gov is the U.S. government's official web portal to all federal, state and local government web resources and services.